Aeroboteco Virtual Airlines! Uma nuvem a frente.



 INFORMAÇÕES METEOROLÓGICAS
METAR FOR LFOP
ADDS - METARS form results

(0929 UTC 24 June 2019)
Data provider http://aviationweather.gov/metar/data/
 
METAR text: LFOP 240900Z AUTO 33006KT 290V350 CAVOK 21/17 Q1016 NOSIG
Conditions at: LFOP (ROUEN/BOOS (AUT), FR) observed 0900 UTC 24 June 2019
Temperature: 21.0°C (70°F)
Dewpoint: 17.0°C (63°F) [RH = 78%]
Pressure (altimeter): 30.00 inches Hg (1016.0 mb)
Winds: from the NNW (330 degrees) at 7 MPH (6 knots; 3.1 m/s)
Visibility: 6 or more miles (10+ km)
Ceiling: ceiling and visibility are OK
Clouds: unknown
Weather: no significant weather observed at this time

METAR text: LFOP 240830Z AUTO 31006KT 270V340 CAVOK 21/17 Q1016 NOSIG
Conditions at: LFOP (ROUEN/BOOS (AUT), FR) observed 0830 UTC 24 June 2019
Temperature: 21.0°C (70°F)
Dewpoint: 17.0°C (63°F) [RH = 78%]
Pressure (altimeter): 30.00 inches Hg (1016.0 mb)
Winds: from the NW (310 degrees) at 7 MPH (6 knots; 3.1 m/s)
Visibility: 6 or more miles (10+ km)
Ceiling: ceiling and visibility are OK
Clouds: unknown
Weather: no significant weather observed at this time

Forecast for: LFOP (ROUEN/BOOS (AUT), FR)
Text: TAF LFOP 240500Z 2406/2506 14005KT CAVOK
Forecast period: 0600 to 0900 UTC 24 June 2019
Forecast type: FROM: standard forecast or significant change
Winds: from the SE (140 degrees) at 6 MPH (5 knots; 2.6 m/s)
Visibility: 6 or more miles 10+ km)
Ceiling: unknown
Clouds: missing
Weather: NSW  (no significant weather)
Text: BECMG 2409/2411 31010KT
Forecast period: 0900 to 1400 UTC 24 June 2019
Forecast type: BECOMING: Conditions expected to become as follows by 1100 UTC 24 June 2019
Winds: from the NW (310 degrees) at 12 MPH (10 knots; 5.1 m/s)
Visibility: 6 or more miles 10+ km)
Ceiling: unknown
Clouds: missing
Weather: NSW  (no significant weather)
Text: BECMG 2414/2416 02008KT
Forecast period: 1400 UTC 24 June 2019 to 0600 UTC 25 June 2019
Forecast type: BECOMING: Conditions expected to become as follows by 1600 UTC 24 June 2019
Winds: from the NNE (20 degrees) at 9 MPH (8 knots; 4.1 m/s)
Visibility: 6 or more miles 10+ km)
Ceiling: unknown
Clouds: missing
Weather: NSW  (no significant weather)

 MAPA DO AEROPORTO

 INFORMAÇÕES DA PISTA
Pista 04 Tamanho da pista 5577 ft Largura da pista 148 ft
Elevação da pista 499 ft Ranhura da pista 0 ft Proa da pista 41
Pista 22 Tamanho da pista 5577 ft Largura da pista 148 ft
Elevação da pista 512 ft Ranhura da pista 0 ft Proa da pista 221
Pista 05 Tamanho da pista 0 ft Largura da pista 0 ft
Elevação da pista 499 ft Ranhura da pista 0 ft Proa da pista 0
Pista 23 Tamanho da pista 0 ft Largura da pista 0 ft
Elevação da pista 507 ft Ranhura da pista 0 ft Proa da pista 0

 FREQUÊNCIAS DO AEROPORTO
Tipo APP Nome ROUEN APP Frequência 118.575 MHZ
Tipo ATIS Nome ATIS Frequência 120.725 MHZ
Tipo TWR Nome ROUEN TWR Frequência 120.2 MHZ

 AUXÍLIOS DE NAVEGAÇÃO PRÓXIMOS AO AEROPORTO